createdAt,value
2023-03-19T00:02:17.646Z,22.60
2023-03-19T00:04:48.154Z,26.00
2023-03-19T00:07:18.083Z,20.90
2023-03-19T00:09:47.906Z,18.00
2023-03-19T00:12:17.729Z,22.60
2023-03-19T00:14:47.522Z,24.30
2023-03-19T00:17:17.176Z,17.80
2023-03-19T00:19:46.939Z,20.90
2023-03-19T00:22:17.384Z,23.70
2023-03-19T00:27:15.903Z,22.70
2023-03-19T00:29:45.709Z,19.00
2023-03-19T00:32:16.155Z,18.80
2023-03-19T00:34:46.126Z,20.40
2023-03-19T00:37:17.003Z,27.00
2023-03-19T00:39:47.089Z,21.50
2023-03-19T00:42:17.584Z,18.80
2023-03-19T00:44:47.297Z,19.40
2023-03-19T00:47:17.088Z,22.20
2023-03-19T00:49:46.882Z,26.40
2023-03-19T00:52:16.636Z,21.90
2023-03-19T00:54:46.854Z,23.40
2023-03-19T00:57:16.615Z,15.30
2023-03-19T00:59:46.514Z,19.90
2023-03-19T01:02:16.707Z,22.60
2023-03-19T01:04:49.494Z,26.90
2023-03-19T01:07:19.515Z,22.90
2023-03-19T01:09:49.288Z,26.20
2023-03-19T01:12:19.430Z,26.20
2023-03-19T01:14:49.126Z,24.10
2023-03-19T01:17:18.927Z,26.70
2023-03-19T01:19:49.750Z,21.20
2023-03-19T01:22:19.481Z,22.20
2023-03-19T01:24:55.270Z,23.50
2023-03-19T01:27:25.120Z,26.20
2023-03-19T01:29:54.986Z,28.40
2023-03-19T01:32:47.550Z,25.70
2023-03-19T01:35:29.760Z,28.10
2023-03-19T01:37:59.527Z,24.30
2023-03-19T01:40:29.754Z,27.10
2023-03-19T01:43:15.582Z,27.90
2023-03-19T01:45:51.836Z,27.80
2023-03-19T01:48:44.830Z,26.80
2023-03-19T01:51:22.022Z,32.50
2023-03-19T01:54:12.030Z,33.80
2023-03-19T01:57:03.293Z,34.80
2023-03-19T02:00:04.507Z,32.40
2023-03-19T02:02:50.458Z,28.90
2023-03-19T02:05:41.467Z,29.60
2023-03-19T02:08:16.713Z,30.20
2023-03-19T02:10:47.845Z,33.30
2023-03-19T02:13:18.115Z,31.10
2023-03-19T02:15:48.514Z,27.80
2023-03-19T02:18:18.802Z,29.10
2023-03-19T02:20:56.885Z,36.10
2023-03-19T02:23:36.063Z,32.10
2023-03-19T02:26:14.721Z,30.30
2023-03-19T02:28:48.286Z,35.00
2023-03-19T02:31:20.998Z,30.00
2023-03-19T02:34:01.617Z,29.70
2023-03-19T02:39:08.113Z,32.00
2023-03-19T02:41:39.453Z,25.80
2023-03-19T02:44:12.174Z,33.90
2023-03-19T02:46:42.020Z,32.60
2023-03-19T02:49:12.680Z,31.40
2023-03-19T02:51:42.510Z,34.50
2023-03-19T02:54:12.539Z,30.30
2023-03-19T02:56:42.316Z,31.50
2023-03-19T02:59:12.792Z,33.50
2023-03-19T03:04:11.660Z,37.80
2023-03-19T03:06:41.546Z,31.40
2023-03-19T03:09:12.254Z,25.30
2023-03-19T03:11:42.680Z,29.40
2023-03-19T03:14:12.757Z,32.30
2023-03-19T03:16:43.479Z,25.50
2023-03-19T03:19:13.803Z,31.30
2023-03-19T03:21:44.283Z,29.50
2023-03-19T03:24:14.248Z,30.40
2023-03-19T03:26:44.681Z,26.40
2023-03-19T03:29:14.612Z,29.60
2023-03-19T03:31:44.569Z,27.40
2023-03-19T03:34:14.850Z,29.90
2023-03-19T03:36:46.348Z,32.00
2023-03-19T03:39:16.392Z,28.70
2023-03-19T03:41:46.914Z,31.80
2023-03-19T03:46:46.140Z,26.00
2023-03-19T03:49:16.135Z,24.10
2023-03-19T03:51:46.326Z,29.20
2023-03-19T03:54:16.448Z,28.70
2023-03-19T03:56:46.207Z,30.50
2023-03-19T03:59:16.396Z,30.40
2023-03-19T04:01:46.454Z,29.20
2023-03-19T04:04:17.157Z,30.90
2023-03-19T04:06:46.961Z,27.40
2023-03-19T04:09:24.115Z,32.10
2023-03-19T04:11:53.858Z,29.00
2023-03-19T04:14:23.716Z,26.40
2023-03-19T04:16:53.805Z,22.80
2023-03-19T04:19:23.644Z,30.10
2023-03-19T04:21:54.034Z,28.90
2023-03-19T04:24:24.085Z,31.20
2023-03-19T04:26:53.936Z,32.80
2023-03-19T04:29:24.016Z,28.30
2023-03-19T04:31:54.246Z,26.90
2023-03-19T04:34:24.321Z,27.20
2023-03-19T04:36:54.132Z,30.00
2023-03-19T04:39:24.333Z,29.20
2023-03-19T04:41:54.359Z,31.70
2023-03-19T04:44:36.119Z,34.10
2023-03-19T04:47:06.577Z,34.70
2023-03-19T04:49:44.758Z,29.40
2023-03-19T04:52:14.970Z,30.40
2023-03-19T04:54:44.985Z,30.40
2023-03-19T04:57:14.849Z,27.80
2023-03-19T04:59:45.992Z,29.10
2023-03-19T05:02:17.655Z,25.20
2023-03-19T05:07:17.522Z,26.00
2023-03-19T05:09:47.516Z,23.60
2023-03-19T05:12:17.693Z,23.40
2023-03-19T05:14:50.609Z,26.70
2023-03-19T05:17:23.793Z,23.80
2023-03-19T05:20:04.382Z,23.40
2023-03-19T05:22:34.287Z,21.90
2023-03-19T05:25:04.708Z,20.70
2023-03-19T05:30:12.504Z,21.40
2023-03-19T05:33:12.174Z,25.40
2023-03-19T05:35:46.964Z,24.40
2023-03-19T05:38:22.257Z,24.90
2023-03-19T05:40:57.848Z,27.20
2023-03-19T05:43:35.101Z,25.00
2023-03-19T05:46:07.704Z,22.00
2023-03-19T05:48:37.752Z,23.50
2023-03-19T05:51:08.813Z,23.00
2023-03-19T05:53:43.019Z,21.40
2023-03-19T05:56:33.088Z,28.90
2023-03-19T05:59:24.015Z,24.30
2023-03-19T06:02:28.900Z,26.20
2023-03-19T06:05:10.507Z,25.10
2023-03-19T06:07:42.744Z,23.20
2023-03-19T06:10:18.153Z,23.80
2023-03-19T06:12:48.650Z,22.10
2023-03-19T06:15:18.707Z,19.70
2023-03-19T06:17:48.689Z,22.30
2023-03-19T06:20:20.249Z,23.60
2023-03-19T06:22:50.481Z,21.00
2023-03-19T06:25:20.892Z,25.20
2023-03-19T06:27:50.938Z,23.20
2023-03-19T06:30:34.785Z,19.60
2023-03-19T06:33:06.154Z,25.00
2023-03-19T06:35:36.570Z,21.80
2023-03-19T06:38:06.930Z,20.70
2023-03-19T06:40:36.695Z,21.10
2023-03-19T06:43:06.733Z,18.80
2023-03-19T06:45:36.516Z,22.10
2023-03-19T06:48:08.786Z,47.40
2023-03-19T06:50:38.634Z,30.60
2023-03-19T06:53:08.537Z,21.50
2023-03-19T06:55:39.607Z,20.50
2023-03-19T06:58:09.425Z,19.00
2023-03-19T07:00:39.348Z,23.10
2023-03-19T07:03:10.443Z,20.30
2023-03-19T07:05:40.243Z,25.20
2023-03-19T07:08:11.490Z,17.40
2023-03-19T07:10:41.304Z,22.50
2023-03-19T07:13:11.154Z,20.50
2023-03-19T07:15:40.967Z,20.00
2023-03-19T07:18:10.636Z,23.10
2023-03-19T07:20:40.444Z,39.50
2023-03-19T07:23:10.272Z,25.30
2023-03-19T07:25:40.176Z,20.60
2023-03-19T07:28:09.935Z,20.90
2023-03-19T07:30:39.685Z,23.80
2023-03-19T07:33:10.410Z,26.30
2023-03-19T07:35:40.244Z,21.10
2023-03-19T07:38:11.362Z,20.40
2023-03-19T07:40:45.564Z,21.70
2023-03-19T07:43:21.215Z,21.60
2023-03-19T07:45:51.122Z,24.30
2023-03-19T07:48:21.394Z,17.60
2023-03-19T07:50:53.653Z,21.50
2023-03-19T07:53:23.440Z,22.30
2023-03-19T07:55:53.176Z,19.40
2023-03-19T07:58:22.863Z,21.00
2023-03-19T08:00:53.056Z,18.80
2023-03-19T08:03:22.871Z,19.50
2023-03-19T08:05:53.270Z,16.70
2023-03-19T08:08:23.133Z,17.70
2023-03-19T08:10:55.754Z,16.10
2023-03-19T08:13:25.667Z,18.50
2023-03-19T08:15:56.018Z,16.40
2023-03-19T08:18:26.268Z,15.50
2023-03-19T08:20:56.051Z,15.80
2023-03-19T08:23:27.026Z,19.90
2023-03-19T08:25:56.992Z,16.80
2023-03-19T08:28:26.986Z,14.60
2023-03-19T08:30:57.050Z,16.40
2023-03-19T08:33:26.925Z,15.60
2023-03-19T08:36:06.634Z,15.20
2023-03-19T08:38:36.976Z,12.90
2023-03-19T08:41:08.581Z,13.80
2023-03-19T08:43:38.858Z,16.40
2023-03-19T08:46:08.709Z,12.90
2023-03-19T08:48:41.324Z,15.50
2023-03-19T08:51:11.418Z,12.40
2023-03-19T08:53:41.652Z,15.00
2023-03-19T08:56:11.650Z,14.60
2023-03-19T08:58:42.458Z,19.10
2023-03-19T09:01:14.467Z,12.20
2023-03-19T09:03:45.266Z,12.50
2023-03-19T09:06:15.498Z,15.10
2023-03-19T09:08:45.753Z,15.90
2023-03-19T09:13:46.583Z,13.30
2023-03-19T09:18:45.267Z,12.00
2023-03-19T09:21:15.095Z,13.60
2023-03-19T09:23:45.040Z,14.50
2023-03-19T09:26:14.845Z,13.70
2023-03-19T09:28:44.853Z,12.30
2023-03-19T09:31:14.559Z,14.40
2023-03-19T09:33:44.398Z,14.70
2023-03-19T09:38:43.269Z,14.90
2023-03-19T09:41:27.723Z,12.40
2023-03-19T09:44:03.557Z,14.10
2023-03-19T09:46:42.857Z,11.10
2023-03-19T09:49:24.425Z,13.50
2023-03-19T09:51:58.195Z,10.00
2023-03-19T09:54:35.686Z,11.90
2023-03-19T09:57:08.863Z,14.70
2023-03-19T09:59:39.381Z,15.40
2023-03-19T10:02:40.903Z,13.00
2023-03-19T10:05:23.353Z,11.90
2023-03-19T10:08:21.379Z,10.80
2023-03-19T10:11:04.237Z,11.80
2023-03-19T10:13:52.874Z,12.30
2023-03-19T10:16:26.257Z,11.00
2023-03-19T10:19:00.480Z,8.90
2023-03-19T10:21:35.363Z,11.70
2023-03-19T10:24:11.887Z,13.50
2023-03-19T10:26:44.034Z,10.60
2023-03-19T10:29:18.304Z,11.30
2023-03-19T10:32:01.292Z,11.20
2023-03-19T10:34:36.018Z,10.30
2023-03-19T10:37:14.614Z,12.20
2023-03-19T10:39:46.306Z,12.50
2023-03-19T10:42:45.146Z,10.90
2023-03-19T10:45:25.445Z,10.90
2023-03-19T10:47:57.486Z,11.30
2023-03-19T10:50:34.587Z,10.20
2023-03-19T10:53:20.524Z,16.60
2023-03-19T10:55:55.003Z,12.40
2023-03-19T10:58:28.791Z,14.20
2023-03-19T11:01:03.565Z,11.30
2023-03-19T11:03:37.320Z,10.30
2023-03-19T11:06:24.000Z,9.50
2023-03-19T11:08:59.152Z,7.80
2023-03-19T11:11:36.290Z,12.20
2023-03-19T11:14:15.229Z,12.90
2023-03-19T11:17:04.553Z,9.10
2023-03-19T11:19:41.289Z,8.10
2023-03-19T11:22:21.077Z,11.30
2023-03-19T11:24:57.815Z,8.90
2023-03-19T11:27:34.408Z,13.00
2023-03-19T11:30:13.642Z,9.70
2023-03-19T11:33:16.529Z,12.80
2023-03-19T11:35:58.172Z,13.40
2023-03-19T11:38:40.366Z,8.60
2023-03-19T11:41:22.051Z,8.40
2023-03-19T11:43:57.135Z,11.40
2023-03-19T11:46:38.902Z,7.80
2023-03-19T11:49:53.189Z,13.00
2023-03-19T11:52:33.577Z,9.60
2023-03-19T11:55:18.218Z,11.40
2023-03-19T11:58:11.703Z,9.30
2023-03-19T12:00:47.723Z,13.60
2023-03-19T12:04:04.750Z,12.00
2023-03-19T12:06:50.508Z,9.70
2023-03-19T12:09:30.048Z,10.30
2023-03-19T12:12:09.530Z,11.20
2023-03-19T12:14:53.613Z,12.20
2023-03-19T12:17:37.689Z,10.50
2023-03-19T12:20:27.283Z,9.70
2023-03-19T12:25:59.401Z,15.50
2023-03-19T12:28:33.514Z,12.50
2023-03-19T12:31:36.326Z,10.40
2023-03-19T12:34:29.751Z,10.80
2023-03-19T12:37:18.458Z,11.10
2023-03-19T12:39:57.650Z,9.70
2023-03-19T12:42:32.902Z,13.10
2023-03-19T12:45:04.360Z,13.00
2023-03-19T12:47:39.129Z,10.10
2023-03-19T12:50:12.021Z,14.00
2023-03-19T12:52:44.031Z,9.70
2023-03-19T12:55:21.389Z,9.90
2023-03-19T12:57:55.291Z,11.40
2023-03-19T13:00:33.390Z,10.90
2023-03-19T13:03:12.531Z,9.60
2023-03-19T13:05:48.308Z,11.00
2023-03-19T13:08:27.277Z,9.20
2023-03-19T13:11:00.129Z,14.80
2023-03-19T13:13:42.881Z,10.10
2023-03-19T13:16:34.898Z,12.50
2023-03-19T13:19:18.010Z,13.80
2023-03-19T13:21:52.306Z,10.30
2023-03-19T13:24:27.774Z,15.60
2023-03-19T13:27:01.043Z,8.60
2023-03-19T13:29:35.470Z,11.20
2023-03-19T13:32:22.475Z,9.80
2023-03-19T13:35:08.374Z,10.00
2023-03-19T13:37:43.540Z,9.20
2023-03-19T13:40:48.299Z,10.50
2023-03-19T13:43:43.312Z,9.80
2023-03-19T13:46:41.300Z,8.80
2023-03-19T13:49:26.071Z,10.80
2023-03-19T13:52:03.548Z,10.50
2023-03-19T13:54:40.190Z,9.50
2023-03-19T13:57:35.081Z,9.40
2023-03-19T14:00:57.716Z,9.20
2023-03-19T14:03:31.095Z,10.20
2023-03-19T14:06:02.265Z,12.60
2023-03-19T14:08:43.196Z,9.80
2023-03-19T14:11:24.063Z,11.00
2023-03-19T14:13:55.288Z,10.40
2023-03-19T14:16:30.655Z,10.30
2023-03-19T14:19:05.069Z,12.60
2023-03-19T14:21:46.479Z,9.90
2023-03-19T14:24:57.042Z,10.00
2023-03-19T14:27:32.321Z,12.00
2023-03-19T14:30:08.933Z,11.60
2023-03-19T14:32:42.610Z,12.40
2023-03-19T14:35:19.752Z,14.30
2023-03-19T14:37:53.667Z,9.70
2023-03-19T14:40:26.630Z,10.50
2023-03-19T14:43:08.177Z,13.80
2023-03-19T14:45:49.954Z,9.50
2023-03-19T14:48:35.311Z,10.60
2023-03-19T14:51:25.946Z,12.50
2023-03-19T14:54:00.890Z,13.70
2023-03-19T14:56:34.377Z,10.90
2023-03-19T14:59:06.042Z,13.20
2023-03-19T15:01:43.944Z,10.20
2023-03-19T15:04:16.758Z,10.90
2023-03-19T15:06:52.592Z,12.00
2023-03-19T15:09:29.088Z,12.10
2023-03-19T15:12:30.859Z,10.30
2023-03-19T15:15:34.868Z,12.30
2023-03-19T15:18:08.295Z,15.10
2023-03-19T15:20:42.561Z,12.30
2023-03-19T15:23:26.707Z,19.20
2023-03-19T15:26:00.766Z,16.00
2023-03-19T15:28:33.743Z,11.90
2023-03-19T15:31:26.160Z,10.90
2023-03-19T15:33:57.225Z,12.90
2023-03-19T15:36:31.165Z,11.30
2023-03-19T15:39:04.986Z,11.90
2023-03-19T15:41:39.804Z,12.70
2023-03-19T15:44:15.379Z,19.20
2023-03-19T15:46:46.650Z,28.30
2023-03-19T15:49:20.320Z,15.60
2023-03-19T15:51:56.834Z,15.20
2023-03-19T15:54:27.323Z,20.20
2023-03-19T15:56:57.734Z,13.50
2023-03-19T16:00:26.597Z,13.80
2023-03-19T16:03:01.668Z,12.90
2023-03-19T16:05:37.112Z,15.50
2023-03-19T16:08:23.559Z,16.20
2023-03-19T16:11:15.385Z,17.10
2023-03-19T16:14:06.619Z,12.70
2023-03-19T16:16:43.158Z,10.80
2023-03-19T16:19:35.742Z,13.00
2023-03-19T16:22:16.777Z,13.20
2023-03-19T16:24:51.229Z,12.40
2023-03-19T16:27:35.715Z,10.50
2023-03-19T16:30:21.757Z,11.50
2023-03-19T16:33:05.629Z,12.90
2023-03-19T16:35:41.117Z,16.60
2023-03-19T16:38:24.239Z,14.70
2023-03-19T16:41:19.494Z,17.30
2023-03-19T16:43:55.543Z,16.90
2023-03-19T16:46:29.437Z,16.50
2023-03-19T16:49:02.561Z,14.50
2023-03-19T16:51:36.601Z,19.90
2023-03-19T16:54:11.176Z,27.30
2023-03-19T16:56:44.393Z,19.10
2023-03-19T16:59:27.986Z,25.30
2023-03-19T17:02:01.523Z,34.50
2023-03-19T17:04:34.942Z,36.50
2023-03-19T17:07:08.090Z,26.70
2023-03-19T17:09:42.088Z,21.50
2023-03-19T17:12:19.381Z,19.00
2023-03-19T17:14:54.650Z,18.10
2023-03-19T17:17:28.014Z,20.70
2023-03-19T17:20:01.138Z,18.60
2023-03-19T17:22:34.942Z,17.40
2023-03-19T17:25:11.492Z,17.20
2023-03-19T17:27:44.890Z,25.80
2023-03-19T17:30:18.913Z,16.70
2023-03-19T17:32:54.588Z,18.70
2023-03-19T17:35:28.480Z,17.20
2023-03-19T17:38:01.803Z,19.80
2023-03-19T17:40:35.128Z,18.10
2023-03-19T17:43:13.046Z,23.40
2023-03-19T17:45:48.756Z,23.30
2023-03-19T17:48:25.983Z,22.90
2023-03-19T17:51:02.394Z,21.60
2023-03-19T17:53:36.238Z,25.80
2023-03-19T17:56:10.671Z,22.50
2023-03-19T17:58:44.382Z,22.00
2023-03-19T18:01:21.150Z,18.00
2023-03-19T18:03:55.589Z,19.90
2023-03-19T18:06:35.438Z,20.70
2023-03-19T18:09:08.788Z,25.00
2023-03-19T18:11:42.128Z,24.70
2023-03-19T18:14:15.351Z,21.90
2023-03-19T18:16:49.242Z,17.20
2023-03-19T18:19:34.246Z,19.40
2023-03-19T18:22:13.417Z,25.00
2023-03-19T18:24:46.820Z,24.90
2023-03-19T18:27:22.906Z,28.10
2023-03-19T18:29:56.211Z,37.50
2023-03-19T18:32:33.228Z,31.10
2023-03-19T18:35:07.737Z,48.90
2023-03-19T18:37:41.007Z,32.10
2023-03-19T18:40:20.310Z,35.90
2023-03-19T18:42:54.204Z,34.80
2023-03-19T18:45:30.723Z,36.10
2023-03-19T18:48:04.232Z,33.90
2023-03-19T18:50:37.719Z,47.30
2023-03-19T18:53:12.598Z,51.00
2023-03-19T18:55:46.296Z,44.60
2023-03-19T18:58:24.476Z,53.80
2023-03-19T19:01:01.705Z,44.50
2023-03-19T19:03:41.453Z,46.70
2023-03-19T19:06:21.741Z,48.40
2023-03-19T19:08:55.021Z,35.00
2023-03-19T19:11:28.212Z,47.20
2023-03-19T19:14:03.299Z,75.30
2023-03-19T19:16:40.817Z,47.30
2023-03-19T19:19:22.688Z,51.10
2023-03-19T19:21:56.414Z,45.60
2023-03-19T19:24:29.532Z,43.50
2023-03-19T19:27:03.163Z,49.70
2023-03-19T19:29:37.662Z,54.40
2023-03-19T19:32:21.091Z,51.30
2023-03-19T19:34:55.155Z,38.70
2023-03-19T19:37:28.755Z,52.40
2023-03-19T19:40:01.807Z,169.40
2023-03-19T19:42:34.985Z,85.60
2023-03-19T19:45:20.213Z,90.30
2023-03-19T19:47:53.390Z,100.60
2023-03-19T19:50:27.941Z,92.50
2023-03-19T19:53:01.464Z,96.50
2023-03-19T19:55:34.963Z,80.10
2023-03-19T19:58:09.449Z,124.50
2023-03-19T20:00:47.767Z,102.60
2023-03-19T20:03:31.304Z,107.60
2023-03-19T20:06:05.104Z,81.60
2023-03-19T20:08:39.378Z,55.90
2023-03-19T20:11:21.060Z,45.70
2023-03-19T20:13:56.884Z,50.50
2023-03-19T20:16:30.733Z,53.10
2023-03-19T20:19:03.854Z,63.80
2023-03-19T20:21:37.107Z,106.80
2023-03-19T20:24:10.683Z,158.80
2023-03-19T20:26:44.882Z,165.30
2023-03-19T20:29:19.146Z,106.20
2023-03-19T20:31:52.403Z,123.70
2023-03-19T20:34:38.693Z,110.10
2023-03-19T20:37:12.964Z,68.60
2023-03-19T20:39:46.304Z,58.00
2023-03-19T20:42:19.748Z,57.90
2023-03-19T20:44:57.805Z,60.30
2023-03-19T20:47:33.291Z,58.40
2023-03-19T20:50:10.241Z,66.40
2023-03-19T20:52:44.815Z,60.80
2023-03-19T20:55:21.764Z,48.30
2023-03-19T20:57:55.508Z,73.30
2023-03-19T21:00:32.834Z,95.60
2023-03-19T21:03:06.582Z,154.60
2023-03-19T21:05:41.360Z,168.10
2023-03-19T21:08:24.529Z,150.40
2023-03-19T21:10:57.714Z,126.70
2023-03-19T21:13:32.023Z,108.70
2023-03-19T21:16:05.383Z,99.50
2023-03-19T21:18:38.631Z,103.70
2023-03-19T21:21:14.802Z,83.80
2023-03-19T21:23:55.480Z,66.50
2023-03-19T21:29:07.383Z,60.70
2023-03-19T21:31:41.047Z,74.80
2023-03-19T21:34:16.700Z,78.30
2023-03-19T21:36:49.982Z,79.60
2023-03-19T21:39:23.130Z,77.60
2023-03-19T21:41:57.333Z,62.90
2023-03-19T21:44:31.552Z,62.90
2023-03-19T21:47:04.879Z,56.60
2023-03-19T21:49:37.980Z,54.00
2023-03-19T21:52:14.093Z,55.90
2023-03-19T21:54:47.209Z,58.60
2023-03-19T21:57:20.912Z,59.50
2023-03-19T21:59:54.047Z,80.60
2023-03-19T22:02:53.366Z,63.30
2023-03-19T22:05:29.687Z,58.10
2023-03-19T22:08:02.863Z,56.10
2023-03-19T22:10:36.081Z,51.60
2023-03-19T22:13:13.726Z,51.10
2023-03-19T22:15:46.885Z,54.50
2023-03-19T22:18:20.536Z,58.20
2023-03-19T22:20:54.830Z,51.30
2023-03-19T22:23:28.569Z,54.10
2023-03-19T22:26:01.605Z,55.60
2023-03-19T22:28:36.331Z,58.80
2023-03-19T22:31:10.025Z,55.80
2023-03-19T22:33:43.210Z,56.60
2023-03-19T22:36:16.629Z,64.10
2023-03-19T22:38:50.250Z,56.30
2023-03-19T22:41:27.541Z,56.60
2023-03-19T22:44:02.611Z,61.80
2023-03-19T22:46:36.479Z,64.80
2023-03-19T22:49:17.421Z,63.30
2023-03-19T22:51:51.403Z,68.10
2023-03-19T22:54:24.786Z,52.90
2023-03-19T22:56:57.881Z,57.80
2023-03-19T22:59:30.999Z,82.20
2023-03-19T23:02:04.306Z,57.80
2023-03-19T23:04:39.045Z,91.20
2023-03-19T23:07:15.000Z,84.00
2023-03-19T23:09:48.113Z,61.60
2023-03-19T23:12:21.273Z,53.70
2023-03-19T23:14:54.332Z,60.20
2023-03-19T23:17:27.765Z,55.60
2023-03-19T23:20:02.516Z,54.90
2023-03-19T23:22:35.963Z,54.20
2023-03-19T23:25:16.014Z,60.30
2023-03-19T23:27:50.001Z,54.80
2023-03-19T23:30:30.270Z,55.50
2023-03-19T23:33:05.577Z,55.60
2023-03-19T23:35:38.828Z,54.70
2023-03-19T23:38:12.894Z,49.80
2023-03-19T23:40:47.260Z,55.10
2023-03-19T23:43:24.448Z,64.00
2023-03-19T23:45:58.768Z,53.90
2023-03-19T23:48:36.706Z,51.60
2023-03-19T23:51:14.399Z,47.70
2023-03-19T23:53:47.772Z,52.90
2023-03-19T23:56:23.732Z,47.20
2023-03-19T23:58:58.894Z,43.30
